sensor_id;sensor_type;location;lat;lon;timestamp;pressure;altitude;pressure_sealevel;temperature;humidity
56689;BME280;42565;53.342;-1.534;2023-07-13T00:02:17;98615.39;;;15.25;67.50
56689;BME280;42565;53.342;-1.534;2023-07-13T00:04:45;98618.61;;;15.11;67.38
56689;BME280;42565;53.342;-1.534;2023-07-13T00:07:12;98619.98;;;15.59;67.65
56689;BME280;42565;53.342;-1.534;2023-07-13T00:09:40;98622.83;;;15.36;66.48
56689;BME280;42565;53.342;-1.534;2023-07-13T00:12:24;98622.72;;;15.29;67.67
56689;BME280;42565;53.342;-1.534;2023-07-13T00:14:51;98625.02;;;15.29;67.45
56689;BME280;42565;53.342;-1.534;2023-07-13T00:17:19;98624.67;;;14.80;67.46
56689;BME280;42565;53.342;-1.534;2023-07-13T00:19:46;98625.59;;;15.36;66.56
56689;BME280;42565;53.342;-1.534;2023-07-13T00:22:13;98627.42;;;15.62;65.56
56689;BME280;42565;53.342;-1.534;2023-07-13T00:24:41;98629.24;;;15.47;66.17
56689;BME280;42565;53.342;-1.534;2023-07-13T00:27:08;98628.55;;;15.53;65.31
56689;BME280;42565;53.342;-1.534;2023-07-13T00:29:36;98630.32;;;15.65;65.25
56689;BME280;42565;53.342;-1.534;2023-07-13T00:32:05;98631.78;;;15.26;66.39
56689;BME280;42565;53.342;-1.534;2023-07-13T00:34:32;98627.82;;;14.98;65.91
56689;BME280;42565;53.342;-1.534;2023-07-13T00:36:59;98628.65;;;15.46;65.84
56689;BME280;42565;53.342;-1.534;2023-07-13T00:39:27;98631.59;;;14.90;65.30
56689;BME280;42565;53.342;-1.534;2023-07-13T00:41:54;98633.83;;;15.77;64.80
56689;BME280;42565;53.342;-1.534;2023-07-13T00:44:22;98634.41;;;14.97;65.86
56689;BME280;42565;53.342;-1.534;2023-07-13T00:46:49;98632.19;;;15.21;66.52
56689;BME280;42565;53.342;-1.534;2023-07-13T00:49:19;98633.47;;;15.16;65.99
56689;BME280;42565;53.342;-1.534;2023-07-13T00:51:49;98626.48;;;15.41;66.35
56689;BME280;42565;53.342;-1.534;2023-07-13T00:54:21;98618.01;;;15.51;66.84
56689;BME280;42565;53.342;-1.534;2023-07-13T00:56:51;98617.25;;;15.78;65.24
56689;BME280;42565;53.342;-1.534;2023-07-13T00:59:20;98614.97;;;15.67;64.56
56689;BME280;42565;53.342;-1.534;2023-07-13T01:01:49;98610.81;;;16.26;64.95
56689;BME280;42565;53.342;-1.534;2023-07-13T01:04:17;98609.58;;;16.05;64.47
56689;BME280;42565;53.342;-1.534;2023-07-13T01:06:45;98610.78;;;15.58;65.42
56689;BME280;42565;53.342;-1.534;2023-07-13T01:09:13;98609.81;;;15.87;65.40
56689;BME280;42565;53.342;-1.534;2023-07-13T01:11:41;98611.92;;;15.06;67.44
56689;BME280;42565;53.342;-1.534;2023-07-13T01:14:08;98622.10;;;15.52;66.47
56689;BME280;42565;53.342;-1.534;2023-07-13T01:16:37;98624.75;;;15.09;66.55
56689;BME280;42565;53.342;-1.534;2023-07-13T01:19:18;98629.87;;;15.50;66.29
56689;BME280;42565;53.342;-1.534;2023-07-13T01:21:51;98630.64;;;15.27;65.49
56689;BME280;42565;53.342;-1.534;2023-07-13T01:24:19;98631.25;;;15.69;63.71
56689;BME280;42565;53.342;-1.534;2023-07-13T01:26:46;98631.74;;;15.15;65.06
56689;BME280;42565;53.342;-1.534;2023-07-13T01:29:14;98633.20;;;15.79;63.59
56689;BME280;42565;53.342;-1.534;2023-07-13T01:31:41;98633.05;;;15.48;64.10
56689;BME280;42565;53.342;-1.534;2023-07-13T01:34:08;98631.11;;;15.72;63.73
56689;BME280;42565;53.342;-1.534;2023-07-13T01:36:35;98631.95;;;15.59;63.16
56689;BME280;42565;53.342;-1.534;2023-07-13T01:39:02;98630.42;;;15.44;63.66
56689;BME280;42565;53.342;-1.534;2023-07-13T01:41:29;98634.94;;;15.21;66.19
56689;BME280;42565;53.342;-1.534;2023-07-13T01:43:57;98634.88;;;15.00;67.28
56689;BME280;42565;53.342;-1.534;2023-07-13T01:46:24;98623.19;;;14.67;67.88
56689;BME280;42565;53.342;-1.534;2023-07-13T01:48:51;98627.80;;;14.98;67.97
56689;BME280;42565;53.342;-1.534;2023-07-13T01:51:20;98630.86;;;14.78;68.99
56689;BME280;42565;53.342;-1.534;2023-07-13T01:53:47;98630.56;;;14.95;69.71
56689;BME280;42565;53.342;-1.534;2023-07-13T01:56:15;98622.42;;;14.99;69.80
56689;BME280;42565;53.342;-1.534;2023-07-13T01:58:42;98618.00;;;15.10;67.95
56689;BME280;42565;53.342;-1.534;2023-07-13T02:01:09;98617.72;;;15.20;67.88
56689;BME280;42565;53.342;-1.534;2023-07-13T02:03:37;98622.90;;;15.27;68.05
56689;BME280;42565;53.342;-1.534;2023-07-13T02:06:04;98620.91;;;14.22;71.13
56689;BME280;42565;53.342;-1.534;2023-07-13T02:08:31;98625.23;;;14.38;71.50
56689;BME280;42565;53.342;-1.534;2023-07-13T02:10:59;98623.04;;;13.97;72.76
56689;BME280;42565;53.342;-1.534;2023-07-13T02:13:26;98619.42;;;12.89;74.58
56689;BME280;42565;53.342;-1.534;2023-07-13T02:15:53;98611.79;;;13.81;74.16
56689;BME280;42565;53.342;-1.534;2023-07-13T02:18:20;98607.64;;;12.62;75.93
56689;BME280;42565;53.342;-1.534;2023-07-13T02:20:47;98610.79;;;13.99;75.05
56689;BME280;42565;53.342;-1.534;2023-07-13T02:23:15;98605.89;;;13.72;75.75
56689;BME280;42565;53.342;-1.534;2023-07-13T02:25:43;98605.44;;;13.50;75.73
56689;BME280;42565;53.342;-1.534;2023-07-13T02:28:11;98606.18;;;13.99;74.84
56689;BME280;42565;53.342;-1.534;2023-07-13T02:30:38;98610.78;;;13.90;73.85
56689;BME280;42565;53.342;-1.534;2023-07-13T02:33:06;98613.36;;;14.32;71.49
56689;BME280;42565;53.342;-1.534;2023-07-13T02:35:33;98611.03;;;13.41;73.98
56689;BME280;42565;53.342;-1.534;2023-07-13T02:38:00;98614.95;;;13.54;75.86
56689;BME280;42565;53.342;-1.534;2023-07-13T02:40:27;98617.30;;;12.90;75.42
56689;BME280;42565;53.342;-1.534;2023-07-13T02:42:55;98614.86;;;13.89;73.75
56689;BME280;42565;53.342;-1.534;2023-07-13T02:45:22;98611.52;;;13.28;73.90
56689;BME280;42565;53.342;-1.534;2023-07-13T02:47:49;98612.68;;;13.99;74.09
56689;BME280;42565;53.342;-1.534;2023-07-13T02:50:17;98609.43;;;13.67;74.18
56689;BME280;42565;53.342;-1.534;2023-07-13T02:52:43;98611.02;;;14.01;73.06
56689;BME280;42565;53.342;-1.534;2023-07-13T02:55:10;98615.06;;;14.51;71.61
56689;BME280;42565;53.342;-1.534;2023-07-13T02:57:37;98614.82;;;14.46;71.28
56689;BME280;42565;53.342;-1.534;2023-07-13T03:00:05;98615.29;;;14.31;71.66
56689;BME280;42565;53.342;-1.534;2023-07-13T03:02:33;98619.50;;;13.84;72.19
56689;BME280;42565;53.342;-1.534;2023-07-13T03:05:00;98617.18;;;14.09;71.87
56689;BME280;42565;53.342;-1.534;2023-07-13T03:07:28;98618.40;;;14.56;71.09
56689;BME280;42565;53.342;-1.534;2023-07-13T03:09:57;98623.93;;;14.61;70.46
56689;BME280;42565;53.342;-1.534;2023-07-13T03:12:25;98622.12;;;13.66;70.80
56689;BME280;42565;53.342;-1.534;2023-07-13T03:14:52;98619.67;;;14.55;68.68
56689;BME280;42565;53.342;-1.534;2023-07-13T03:17:19;98613.96;;;13.72;70.36
56689;BME280;42565;53.342;-1.534;2023-07-13T03:19:46;98613.58;;;15.13;67.63
56689;BME280;42565;53.342;-1.534;2023-07-13T03:22:14;98613.46;;;14.99;68.34
56689;BME280;42565;53.342;-1.534;2023-07-13T03:24:41;98613.46;;;14.91;68.48
56689;BME280;42565;53.342;-1.534;2023-07-13T03:27:09;98613.91;;;15.00;68.45
56689;BME280;42565;53.342;-1.534;2023-07-13T03:29:36;98608.47;;;13.82;70.83
56689;BME280;42565;53.342;-1.534;2023-07-13T03:32:05;98615.67;;;14.70;69.30
56689;BME280;42565;53.342;-1.534;2023-07-13T03:34:32;98614.83;;;14.66;68.69
56689;BME280;42565;53.342;-1.534;2023-07-13T03:37:00;98614.89;;;14.39;69.06
56689;BME280;42565;53.342;-1.534;2023-07-13T03:39:27;98613.43;;;14.01;70.18
56689;BME280;42565;53.342;-1.534;2023-07-13T03:41:55;98613.96;;;14.32;70.13
56689;BME280;42565;53.342;-1.534;2023-07-13T03:44:22;98614.08;;;13.42;71.38
56689;BME280;42565;53.342;-1.534;2023-07-13T03:46:50;98615.37;;;14.10;71.03
56689;BME280;42565;53.342;-1.534;2023-07-13T03:49:17;98618.88;;;14.44;69.68
56689;BME280;42565;53.342;-1.534;2023-07-13T03:51:44;98622.21;;;14.64;69.49
56689;BME280;42565;53.342;-1.534;2023-07-13T03:54:11;98626.22;;;13.76;71.53
56689;BME280;42565;53.342;-1.534;2023-07-13T03:56:38;98628.30;;;13.71;70.99
56689;BME280;42565;53.342;-1.534;2023-07-13T03:59:05;98631.16;;;14.65;68.82
56689;BME280;42565;53.342;-1.534;2023-07-13T04:01:33;98631.54;;;14.64;68.00
56689;BME280;42565;53.342;-1.534;2023-07-13T04:04:00;98633.42;;;15.42;66.90
56689;BME280;42565;53.342;-1.534;2023-07-13T04:06:29;98637.16;;;14.69;66.94
56689;BME280;42565;53.342;-1.534;2023-07-13T04:08:58;98638.81;;;15.11;66.77
56689;BME280;42565;53.342;-1.534;2023-07-13T04:11:28;98647.20;;;14.24;67.56
56689;BME280;42565;53.342;-1.534;2023-07-13T04:13:56;98647.26;;;15.26;67.00
56689;BME280;42565;53.342;-1.534;2023-07-13T04:16:24;98654.20;;;15.04;67.49
56689;BME280;42565;53.342;-1.534;2023-07-13T04:18:52;98656.13;;;14.78;68.12
56689;BME280;42565;53.342;-1.534;2023-07-13T04:21:20;98657.62;;;14.96;67.37
56689;BME280;42565;53.342;-1.534;2023-07-13T04:23:47;98663.97;;;14.76;68.51
56689;BME280;42565;53.342;-1.534;2023-07-13T04:26:14;98661.41;;;14.94;68.12
56689;BME280;42565;53.342;-1.534;2023-07-13T04:28:42;98664.09;;;14.97;67.45
56689;BME280;42565;53.342;-1.534;2023-07-13T04:31:09;98658.69;;;15.15;67.01
56689;BME280;42565;53.342;-1.534;2023-07-13T04:33:37;98668.59;;;15.20;68.82
56689;BME280;42565;53.342;-1.534;2023-07-13T04:36:05;98662.46;;;14.90;69.62
56689;BME280;42565;53.342;-1.534;2023-07-13T04:38:33;98670.36;;;15.20;68.72
56689;BME280;42565;53.342;-1.534;2023-07-13T04:41:02;98667.37;;;15.05;69.38
56689;BME280;42565;53.342;-1.534;2023-07-13T04:43:31;98658.78;;;14.95;67.91
56689;BME280;42565;53.342;-1.534;2023-07-13T04:46:03;98654.90;;;15.66;66.83
56689;BME280;42565;53.342;-1.534;2023-07-13T04:48:30;98665.78;;;14.59;68.50
56689;BME280;42565;53.342;-1.534;2023-07-13T04:50:58;98669.85;;;15.05;67.87
56689;BME280;42565;53.342;-1.534;2023-07-13T04:53:26;98678.04;;;14.40;68.54
56689;BME280;42565;53.342;-1.534;2023-07-13T04:55:53;98681.82;;;15.73;66.72
56689;BME280;42565;53.342;-1.534;2023-07-13T04:58:22;98678.78;;;15.13;67.01
56689;BME280;42565;53.342;-1.534;2023-07-13T05:00:49;98683.66;;;15.70;66.73
56689;BME280;42565;53.342;-1.534;2023-07-13T05:03:17;98685.70;;;16.14;65.09
56689;BME280;42565;53.342;-1.534;2023-07-13T05:05:54;98690.38;;;15.54;66.86
56689;BME280;42565;53.342;-1.534;2023-07-13T05:08:23;98692.18;;;15.01;67.10
56689;BME280;42565;53.342;-1.534;2023-07-13T05:10:50;98695.88;;;15.50;66.37
56689;BME280;42565;53.342;-1.534;2023-07-13T05:13:18;98699.60;;;15.86;66.58
56689;BME280;42565;53.342;-1.534;2023-07-13T05:15:47;98697.45;;;15.69;66.47
56689;BME280;42565;53.342;-1.534;2023-07-13T05:18:14;98697.80;;;15.60;66.92
56689;BME280;42565;53.342;-1.534;2023-07-13T05:20:41;98699.51;;;16.32;66.16
56689;BME280;42565;53.342;-1.534;2023-07-13T05:23:08;98701.59;;;16.27;65.09
56689;BME280;42565;53.342;-1.534;2023-07-13T05:25:36;98707.15;;;15.68;65.73
56689;BME280;42565;53.342;-1.534;2023-07-13T05:28:02;98711.73;;;15.77;65.36
56689;BME280;42565;53.342;-1.534;2023-07-13T05:30:30;98711.38;;;15.60;65.95
56689;BME280;42565;53.342;-1.534;2023-07-13T05:32:56;98716.09;;;15.78;64.92
56689;BME280;42565;53.342;-1.534;2023-07-13T05:35:24;98714.75;;;15.81;63.40
56689;BME280;42565;53.342;-1.534;2023-07-13T05:37:51;98716.46;;;16.56;63.83
56689;BME280;42565;53.342;-1.534;2023-07-13T05:40:18;98722.19;;;16.13;64.27
56689;BME280;42565;53.342;-1.534;2023-07-13T05:42:45;98726.08;;;15.59;65.80
56689;BME280;42565;53.342;-1.534;2023-07-13T05:45:13;98727.92;;;16.31;63.35
56689;BME280;42565;53.342;-1.534;2023-07-13T05:47:40;98734.46;;;15.71;64.78
56689;BME280;42565;53.342;-1.534;2023-07-13T05:50:07;98732.08;;;16.38;64.70
56689;BME280;42565;53.342;-1.534;2023-07-13T05:52:34;98739.15;;;16.31;63.38
56689;BME280;42565;53.342;-1.534;2023-07-13T05:55:01;98739.16;;;15.95;63.93
56689;BME280;42565;53.342;-1.534;2023-07-13T05:57:29;98745.73;;;15.09;65.91
56689;BME280;42565;53.342;-1.534;2023-07-13T05:59:57;98746.35;;;15.96;65.87
56689;BME280;42565;53.342;-1.534;2023-07-13T06:02:24;98747.03;;;15.94;65.58
56689;BME280;42565;53.342;-1.534;2023-07-13T06:04:52;98750.92;;;15.84;65.01
56689;BME280;42565;53.342;-1.534;2023-07-13T06:07:19;98751.65;;;15.64;65.63
56689;BME280;42565;53.342;-1.534;2023-07-13T06:09:46;98761.31;;;16.34;65.57
56689;BME280;42565;53.342;-1.534;2023-07-13T06:12:13;98766.50;;;15.96;64.95
56689;BME280;42565;53.342;-1.534;2023-07-13T06:14:40;98768.45;;;15.49;65.80
56689;BME280;42565;53.342;-1.534;2023-07-13T06:17:07;98770.09;;;16.07;65.04
56689;BME280;42565;53.342;-1.534;2023-07-13T06:19:34;98771.73;;;15.44;67.14
56689;BME280;42565;53.342;-1.534;2023-07-13T06:22:02;98783.26;;;16.05;66.90
56689;BME280;42565;53.342;-1.534;2023-07-13T06:24:29;98780.58;;;14.99;67.26
56689;BME280;42565;53.342;-1.534;2023-07-13T06:26:57;98785.04;;;15.76;65.35
56689;BME280;42565;53.342;-1.534;2023-07-13T06:29:24;98787.18;;;15.32;66.31
56689;BME280;42565;53.342;-1.534;2023-07-13T06:31:51;98790.11;;;15.99;64.42
56689;BME280;42565;53.342;-1.534;2023-07-13T06:34:18;98792.68;;;15.97;64.96
56689;BME280;42565;53.342;-1.534;2023-07-13T06:36:45;98793.85;;;16.53;64.43
56689;BME280;42565;53.342;-1.534;2023-07-13T06:39:12;98798.45;;;16.37;63.90
56689;BME280;42565;53.342;-1.534;2023-07-13T06:41:39;98796.61;;;15.56;63.78
56689;BME280;42565;53.342;-1.534;2023-07-13T06:44:07;98798.91;;;16.46;62.40
56689;BME280;42565;53.342;-1.534;2023-07-13T06:46:34;98798.99;;;15.16;64.36
56689;BME280;42565;53.342;-1.534;2023-07-13T06:49:02;98800.41;;;15.92;65.76
56689;BME280;42565;53.342;-1.534;2023-07-13T06:51:29;98797.94;;;16.32;63.79
56689;BME280;42565;53.342;-1.534;2023-07-13T06:53:55;98795.27;;;16.09;64.31
56689;BME280;42565;53.342;-1.534;2023-07-13T06:56:23;98793.11;;;15.63;63.13
56689;BME280;42565;53.342;-1.534;2023-07-13T06:58:50;98794.57;;;16.38;63.24
56689;BME280;42565;53.342;-1.534;2023-07-13T07:01:17;98799.49;;;16.08;64.75
56689;BME280;42565;53.342;-1.534;2023-07-13T07:03:45;98801.09;;;16.14;64.81
56689;BME280;42565;53.342;-1.534;2023-07-13T07:06:16;98804.81;;;16.38;62.42
56689;BME280;42565;53.342;-1.534;2023-07-13T07:08:43;98804.58;;;16.49;63.37
56689;BME280;42565;53.342;-1.534;2023-07-13T07:11:14;98800.29;;;17.10;61.37
56689;BME280;42565;53.342;-1.534;2023-07-13T07:13:41;98802.75;;;17.66;60.56
56689;BME280;42565;53.342;-1.534;2023-07-13T07:16:09;98804.69;;;17.70;60.25
56689;BME280;42565;53.342;-1.534;2023-07-13T07:18:36;98804.26;;;17.38;58.37
56689;BME280;42565;53.342;-1.534;2023-07-13T07:21:04;98804.80;;;17.57;59.27
56689;BME280;42565;53.342;-1.534;2023-07-13T07:23:31;98809.62;;;17.33;59.52
56689;BME280;42565;53.342;-1.534;2023-07-13T07:25:59;98812.11;;;17.99;57.89
56689;BME280;42565;53.342;-1.534;2023-07-13T07:28:26;98816.06;;;16.63;59.05
56689;BME280;42565;53.342;-1.534;2023-07-13T07:30:55;98825.56;;;17.15;59.05
56689;BME280;42565;53.342;-1.534;2023-07-13T07:33:24;98828.89;;;16.38;58.79
56689;BME280;42565;53.342;-1.534;2023-07-13T07:35:52;98831.33;;;16.33;61.27
56689;BME280;42565;53.342;-1.534;2023-07-13T07:38:20;98836.92;;;16.55;60.66
56689;BME280;42565;53.342;-1.534;2023-07-13T07:40:47;98842.62;;;16.18;61.80
56689;BME280;42565;53.342;-1.534;2023-07-13T07:43:14;98836.20;;;16.58;60.11
56689;BME280;42565;53.342;-1.534;2023-07-13T07:45:44;98835.89;;;16.90;59.86
56689;BME280;42565;53.342;-1.534;2023-07-13T07:48:12;98837.85;;;17.68;58.84
56689;BME280;42565;53.342;-1.534;2023-07-13T07:50:39;98836.63;;;17.47;58.65
56689;BME280;42565;53.342;-1.534;2023-07-13T07:53:07;98838.19;;;18.30;57.39
56689;BME280;42565;53.342;-1.534;2023-07-13T07:55:34;98841.99;;;17.67;56.22
56689;BME280;42565;53.342;-1.534;2023-07-13T07:58:01;98839.74;;;17.89;57.40
56689;BME280;42565;53.342;-1.534;2023-07-13T08:00:29;98843.15;;;17.58;56.90
56689;BME280;42565;53.342;-1.534;2023-07-13T08:02:56;98834.04;;;17.88;54.99
56689;BME280;42565;53.342;-1.534;2023-07-13T08:05:23;98837.60;;;18.17;55.47
56689;BME280;42565;53.342;-1.534;2023-07-13T08:07:51;98848.52;;;16.99;58.16
56689;BME280;42565;53.342;-1.534;2023-07-13T08:10:19;98848.86;;;16.05;59.87
56689;BME280;42565;53.342;-1.534;2023-07-13T08:12:46;98846.82;;;17.26;59.77
56689;BME280;42565;53.342;-1.534;2023-07-13T08:15:15;98845.99;;;17.81;58.14
56689;BME280;42565;53.342;-1.534;2023-07-13T08:17:42;98852.33;;;17.53;55.97
56689;BME280;42565;53.342;-1.534;2023-07-13T08:20:10;98849.92;;;17.10;56.64
56689;BME280;42565;53.342;-1.534;2023-07-13T08:22:38;98848.62;;;17.45;56.89
56689;BME280;42565;53.342;-1.534;2023-07-13T08:25:06;98849.80;;;17.59;54.93
56689;BME280;42565;53.342;-1.534;2023-07-13T08:27:33;98849.79;;;17.86;54.06
56689;BME280;42565;53.342;-1.534;2023-07-13T08:30:01;98847.78;;;17.83;53.24
56689;BME280;42565;53.342;-1.534;2023-07-13T08:32:29;98843.93;;;17.31;52.80
56689;BME280;42565;53.342;-1.534;2023-07-13T08:34:56;98841.38;;;17.51;54.15
56689;BME280;42565;53.342;-1.534;2023-07-13T08:37:24;98829.97;;;17.22;53.52
56689;BME280;42565;53.342;-1.534;2023-07-13T08:39:51;98842.58;;;16.71;54.97
56689;BME280;42565;53.342;-1.534;2023-07-13T08:42:31;98840.10;;;17.27;54.30
56689;BME280;42565;53.342;-1.534;2023-07-13T08:45:11;98840.46;;;17.41;54.03
56689;BME280;42565;53.342;-1.534;2023-07-13T08:47:42;98840.15;;;16.92;53.18
56689;BME280;42565;53.342;-1.534;2023-07-13T08:50:14;98836.65;;;18.10;51.45
56689;BME280;42565;53.342;-1.534;2023-07-13T08:52:44;98838.31;;;18.17;49.36
56689;BME280;42565;53.342;-1.534;2023-07-13T08:55:15;98843.40;;;18.55;49.32
56689;BME280;42565;53.342;-1.534;2023-07-13T08:57:48;98836.02;;;18.62;48.42
56689;BME280;42565;53.342;-1.534;2023-07-13T09:00:18;98838.92;;;18.54;48.97
56689;BME280;42565;53.342;-1.534;2023-07-13T09:02:48;98836.19;;;18.16;45.89
56689;BME280;42565;53.342;-1.534;2023-07-13T09:05:25;98839.59;;;18.04;49.24
56689;BME280;42565;53.342;-1.534;2023-07-13T09:08:04;98836.67;;;18.65;47.38
56689;BME280;42565;53.342;-1.534;2023-07-13T09:10:42;98838.74;;;18.79;47.20
56689;BME280;42565;53.342;-1.534;2023-07-13T09:13:22;98836.11;;;18.81;47.68
56689;BME280;42565;53.342;-1.534;2023-07-13T09:15:51;98830.81;;;18.27;48.31
56689;BME280;42565;53.342;-1.534;2023-07-13T09:18:26;98830.13;;;18.29;48.45
56689;BME280;42565;53.342;-1.534;2023-07-13T09:20:59;98825.56;;;18.00;47.64
56689;BME280;42565;53.342;-1.534;2023-07-13T09:23:28;98822.05;;;17.12;49.48
56689;BME280;42565;53.342;-1.534;2023-07-13T09:26:02;98820.62;;;17.90;48.91
56689;BME280;42565;53.342;-1.534;2023-07-13T09:28:37;98820.09;;;18.01;47.57
56689;BME280;42565;53.342;-1.534;2023-07-13T09:31:09;98819.86;;;18.11;49.23
56689;BME280;42565;53.342;-1.534;2023-07-13T09:33:38;98821.89;;;18.04;48.93
56689;BME280;42565;53.342;-1.534;2023-07-13T09:36:19;98822.33;;;18.54;47.18
56689;BME280;42565;53.342;-1.534;2023-07-13T09:38:48;98827.48;;;18.39;49.50
56689;BME280;42565;53.342;-1.534;2023-07-13T09:41:21;98822.86;;;18.64;47.03
56689;BME280;42565;53.342;-1.534;2023-07-13T09:44:09;98820.37;;;18.87;45.04
56689;BME280;42565;53.342;-1.534;2023-07-13T09:46:38;98819.62;;;19.01;47.21
56689;BME280;42565;53.342;-1.534;2023-07-13T09:49:07;98812.47;;;19.08;43.80
56689;BME280;42565;53.342;-1.534;2023-07-13T09:51:35;98820.32;;;19.23;43.93
56689;BME280;42565;53.342;-1.534;2023-07-13T09:54:03;98817.59;;;19.29;42.63
56689;BME280;42565;53.342;-1.534;2023-07-13T09:56:31;98829.07;;;19.58;42.62
56689;BME280;42565;53.342;-1.534;2023-07-13T09:58:59;98829.62;;;18.92;43.55
56689;BME280;42565;53.342;-1.534;2023-07-13T10:01:36;98826.53;;;18.09;45.24
56689;BME280;42565;53.342;-1.534;2023-07-13T10:04:11;98834.63;;;18.80;44.43
56689;BME280;42565;53.342;-1.534;2023-07-13T10:06:40;98837.63;;;19.14;44.35
56689;BME280;42565;53.342;-1.534;2023-07-13T10:09:08;98841.30;;;18.89;44.76
56689;BME280;42565;53.342;-1.534;2023-07-13T10:11:37;98843.04;;;18.58;45.23
56689;BME280;42565;53.342;-1.534;2023-07-13T10:14:11;98850.53;;;18.66;45.59
56689;BME280;42565;53.342;-1.534;2023-07-13T10:16:41;98847.66;;;19.31;42.99
56689;BME280;42565;53.342;-1.534;2023-07-13T10:19:12;98856.96;;;19.20;42.16
56689;BME280;42565;53.342;-1.534;2023-07-13T10:21:46;98855.90;;;19.66;40.77
56689;BME280;42565;53.342;-1.534;2023-07-13T10:24:17;98856.62;;;21.01;40.80
56689;BME280;42565;53.342;-1.534;2023-07-13T10:26:49;98859.64;;;21.42;40.14
56689;BME280;42565;53.342;-1.534;2023-07-13T10:29:21;98868.21;;;20.93;38.56
56689;BME280;42565;53.342;-1.534;2023-07-13T10:31:49;98869.58;;;20.89;38.01
56689;BME280;42565;53.342;-1.534;2023-07-13T10:34:18;98866.37;;;20.88;38.87
56689;BME280;42565;53.342;-1.534;2023-07-13T10:36:47;98872.45;;;21.26;38.91
56689;BME280;42565;53.342;-1.534;2023-07-13T10:39:18;98878.60;;;21.36;38.55
56689;BME280;42565;53.342;-1.534;2023-07-13T10:41:50;98878.18;;;21.37;37.81
56689;BME280;42565;53.342;-1.534;2023-07-13T10:44:24;98880.79;;;20.59;40.36
56689;BME280;42565;53.342;-1.534;2023-07-13T10:46:55;98876.01;;;20.28;40.46
56689;BME280;42565;53.342;-1.534;2023-07-13T10:49:24;98886.13;;;19.80;39.97
56689;BME280;42565;53.342;-1.534;2023-07-13T10:51:53;98879.20;;;20.26;40.18
56689;BME280;42565;53.342;-1.534;2023-07-13T10:54:22;98888.13;;;19.54;42.39
56689;BME280;42565;53.342;-1.534;2023-07-13T10:57:10;98885.05;;;20.83;39.62
56689;BME280;42565;53.342;-1.534;2023-07-13T10:59:41;98879.05;;;20.93;39.13
56689;BME280;42565;53.342;-1.534;2023-07-13T11:02:13;98881.79;;;22.55;38.72
56689;BME280;42565;53.342;-1.534;2023-07-13T11:04:44;98881.49;;;21.88;38.10
56689;BME280;42565;53.342;-1.534;2023-07-13T11:07:19;98877.84;;;21.92;37.90
56689;BME280;42565;53.342;-1.534;2023-07-13T11:09:51;98880.95;;;22.42;38.90
56689;BME280;42565;53.342;-1.534;2023-07-13T11:12:52;98885.74;;;21.64;38.95
56689;BME280;42565;53.342;-1.534;2023-07-13T11:15:45;98889.04;;;19.98;41.48
56689;BME280;42565;53.342;-1.534;2023-07-13T11:18:22;98888.77;;;20.11;41.01
56689;BME280;42565;53.342;-1.534;2023-07-13T11:20:49;98885.78;;;19.71;42.16
56689;BME280;42565;53.342;-1.534;2023-07-13T11:23:28;98886.92;;;20.56;39.99
56689;BME280;42565;53.342;-1.534;2023-07-13T11:25:56;98873.46;;;21.53;39.15
56689;BME280;42565;53.342;-1.534;2023-07-13T11:28:25;98878.48;;;20.90;38.36
56689;BME280;42565;53.342;-1.534;2023-07-13T11:31:02;98877.78;;;21.52;39.69
56689;BME280;42565;53.342;-1.534;2023-07-13T11:33:50;98871.65;;;22.45;39.64
56689;BME280;42565;53.342;-1.534;2023-07-13T11:36:21;98873.90;;;22.84;37.13
56689;BME280;42565;53.342;-1.534;2023-07-13T11:38:58;98875.81;;;23.42;36.02
56689;BME280;42565;53.342;-1.534;2023-07-13T11:41:29;98886.42;;;22.74;34.29
56689;BME280;42565;53.342;-1.534;2023-07-13T11:44:06;98879.11;;;22.06;36.62
56689;BME280;42565;53.342;-1.534;2023-07-13T11:46:33;98880.43;;;22.61;37.23
56689;BME280;42565;53.342;-1.534;2023-07-13T11:49:01;98870.89;;;23.02;34.57
56689;BME280;42565;53.342;-1.534;2023-07-13T11:51:30;98865.00;;;23.13;34.12
56689;BME280;42565;53.342;-1.534;2023-07-13T11:54:02;98864.26;;;23.87;34.28
56689;BME280;42565;53.342;-1.534;2023-07-13T11:56:30;98860.54;;;23.87;34.83
56689;BME280;42565;53.342;-1.534;2023-07-13T11:59:02;98859.41;;;24.15;34.77
56689;BME280;42565;53.342;-1.534;2023-07-13T12:01:32;98858.24;;;24.54;34.30
56689;BME280;42565;53.342;-1.534;2023-07-13T12:04:00;98866.47;;;23.90;34.62
56689;BME280;42565;53.342;-1.534;2023-07-13T12:06:30;98860.92;;;23.03;33.84
56689;BME280;42565;53.342;-1.534;2023-07-13T12:08:58;98857.56;;;23.22;33.21
56689;BME280;42565;53.342;-1.534;2023-07-13T12:11:26;98858.23;;;23.12;34.53
56689;BME280;42565;53.342;-1.534;2023-07-13T12:13:54;98856.19;;;23.63;35.75
56689;BME280;42565;53.342;-1.534;2023-07-13T12:16:27;98854.73;;;23.70;35.14
56689;BME280;42565;53.342;-1.534;2023-07-13T12:18:55;98859.29;;;24.81;34.98
56689;BME280;42565;53.342;-1.534;2023-07-13T12:21:30;98855.37;;;24.37;33.22
56689;BME280;42565;53.342;-1.534;2023-07-13T12:23:59;98852.05;;;23.26;34.50
56689;BME280;42565;53.342;-1.534;2023-07-13T12:26:27;98865.87;;;21.64;36.34
56689;BME280;42565;53.342;-1.534;2023-07-13T12:28:56;98852.76;;;21.36;37.01
56689;BME280;42565;53.342;-1.534;2023-07-13T12:31:31;98851.84;;;21.27;37.36
56689;BME280;42565;53.342;-1.534;2023-07-13T12:34:02;98854.81;;;21.67;38.13
56689;BME280;42565;53.342;-1.534;2023-07-13T12:36:32;98852.33;;;21.15;38.07
56689;BME280;42565;53.342;-1.534;2023-07-13T12:39:04;98854.20;;;22.04;38.39
56689;BME280;42565;53.342;-1.534;2023-07-13T12:41:33;98854.55;;;21.80;38.09
56689;BME280;42565;53.342;-1.534;2023-07-13T12:44:01;98847.90;;;22.86;38.82
56689;BME280;42565;53.342;-1.534;2023-07-13T12:46:28;98839.30;;;23.43;37.39
56689;BME280;42565;53.342;-1.534;2023-07-13T12:48:57;98841.63;;;24.08;36.45
56689;BME280;42565;53.342;-1.534;2023-07-13T12:51:25;98840.41;;;23.55;36.45
56689;BME280;42565;53.342;-1.534;2023-07-13T12:53:57;98838.84;;;23.11;37.42
56689;BME280;42565;53.342;-1.534;2023-07-13T12:56:26;98835.46;;;22.50;36.62
56689;BME280;42565;53.342;-1.534;2023-07-13T12:58:58;98839.69;;;22.43;37.57
56689;BME280;42565;53.342;-1.534;2023-07-13T13:01:28;98835.11;;;23.05;37.72